CDT,Max TemperatureF,Mean TemperatureF,Min TemperatureF,Max Dew PointF,MeanDew PointF,Min DewpointF,Max Humidity, Mean Humidity, Min Humidity, Max Sea Level PressureIn, Mean Sea Level PressureIn, Min Sea Level PressureIn, Max VisibilityMiles, Mean VisibilityMiles, Min VisibilityMiles, Max Wind SpeedMPH, Mean Wind SpeedMPH, Max Gust SpeedMPH,PrecipitationIn, CloudCover, Events, WindDirDegrees
2014-4-1,33,19,5,10,0,-4,76,49,22,30.22,30.19,30.14,10,10,10,13,7,16,0.00,0,,322
2014-4-2,33,21,9,21,12,4,88,60,31,30.20,30.12,30.03,10,8,2,17,9,22,0.02,5,Snow,122
2014-4-3,34,28,22,25,21,19,92,79,66,30.16,30.04,29.97,10,5,1,14,7,17,0.07,8,Snow,63
2014-4-4,41,30,18,26,22,15,88,68,48,30.16,30.05,29.84,10,10,9,18,8,24,0.00,2,,195
2014-4-5,50,42,33,35,29,24,75,64,53,29.90,29.84,29.77,10,10,7,22,12,29,0.02,3,Rain,179
2014-4-6,59,44,28,36,29,24,92,60,28,29.87,29.79,29.70,10,10,10,22,9,28,T,3,,224
2014-4-7,54,41,27,35,28,22,92,63,34,30.08,29.98,29.88,10,10,10,32,13,39,T,2,,277
2014-4-8,65,46,27,37,29,23,85,57,29,30.07,29.92,29.65,10,10,9,22,12,27,0.00,0,,190
2014-4-9,72,57,41,34,29,22,58,41,23,29.73,29.60,29.46,10,10,10,39,18,49,T,0,,254
2014-4-10,59,47,35,24,21,16,64,43,22,29.90,29.84,29.74,10,10,10,35,15,42,T,3,Rain,277
2014-4-11,54,43,32,34,26,21,79,54,29,29.96,29.90,29.84,10,10,10,16,9,23,T,3,,314
2014-4-12,50,39,28,36,31,20,96,81,65,30.09,29.83,29.70,10,10,7,30,17,36,T,7,Rain-Snow,336
2014-4-13,35,28,20,20,14,10,77,58,38,30.34,30.26,30.09,10,9,2,28,14,35,T,6,Snow,339
2014-4-14,30,23,16,17,13,3,84,59,34,30.38,30.29,30.21,10,6,0,20,10,22,T,6,Fog-Snow,342
2014-4-15,38,28,18,22,15,8,88,62,35,30.21,29.95,29.83,10,8,1,26,17,33,0.01,5,Snow,109
2014-4-16,34,28,22,22,19,13,88,70,51,30.38,30.09,29.85,10,5,1,22,12,27,0.03,8,Snow,55
2014-4-17,42,32,22,21,16,11,68,51,33,30.40,30.30,30.18,10,10,10,17,10,23,0.00,8,,102
2014-4-18,54,42,29,38,27,20,86,62,38,30.17,29.96,29.72,10,9,3,36,20,43,0.15,5,Rain,107
2014-4-19,55,45,34,37,34,32,92,67,41,30.00,29.84,29.68,10,9,4,29,12,39,T,4,Rain,248
2014-4-20,73,53,32,37,31,23,89,57,25,29.99,29.92,29.81,10,10,10,32,12,41,T,0,Rain,197
2014-4-21,60,48,35,37,33,30,82,57,32,30.25,30.14,29.99,10,10,10,22,9,31,0.00,3,,301
2014-4-22,69,49,29,34,31,28,92,57,22,30.13,29.97,29.79,10,10,7,24,12,31,0.00,0,,116
2014-4-23,50,45,40,44,41,33,93,75,56,29.77,29.63,29.55,10,8,2,33,18,43,0.47,7,Rain,125
2014-4-24,60,49,38,40,35,29,92,68,43,29.73,29.70,29.66,10,10,10,24,11,33,T,2,Rain-Thunderstorm,265
2014-4-25,56,43,30,40,35,27,92,74,55,29.91,29.81,29.72,10,7,0,18,10,25,0.00,4,Fog,33
2014-4-26,50,43,35,38,35,32,92,74,56,29.91,29.84,29.77,10,10,7,28,16,36,0.07,6,Rain,85
2014-4-27,41,38,34,37,34,32,100,93,85,29.79,29.70,29.65,10,5,1,25,16,33,0.49,8,Rain,68
2014-4-28,39,36,32,37,32,30,100,95,89,30.03,29.77,29.62,10,3,0,15,9,18,0.46,8,Fog-Rain-Snow,33
2014-4-29,53,43,33,36,32,27,96,68,39,30.24,30.16,29.97,10,9,6,26,14,34,0.01,5,Snow,346
2014-4-30,56,45,33,31,26,23,75,54,32,30.23,30.19,30.11,10,10,10,29,18,37,0.00,1,,322